createdAt,value
2024-01-10T00:00:14.606Z,26.08
2024-01-10T00:02:41.736Z,25.48
2024-01-10T00:07:38.502Z,17.63
2024-01-10T00:10:07.078Z,17.77
2024-01-10T00:12:37.643Z,17.40
2024-01-10T00:15:05.803Z,17.45
2024-01-10T00:17:33.794Z,19.35
2024-01-10T00:20:00.874Z,18.60
2024-01-10T00:22:33.338Z,19.17
2024-01-10T00:25:00.579Z,17.77
2024-01-10T00:27:29.188Z,18.40
2024-01-10T00:29:58.000Z,17.55
2024-01-10T00:32:25.127Z,18.42
2024-01-10T00:39:46.129Z,18.35
2024-01-10T00:42:13.146Z,17.85
2024-01-10T00:44:40.572Z,20.05
2024-01-10T00:47:07.669Z,19.08
2024-01-10T00:52:04.102Z,18.10
2024-01-10T00:54:31.465Z,18.85
2024-01-10T00:57:01.097Z,18.52
2024-01-10T00:59:28.183Z,18.83
2024-01-10T01:01:55.166Z,13.68
2024-01-10T01:04:22.265Z,13.85
2024-01-10T01:06:49.372Z,13.63
2024-01-10T01:11:44.034Z,16.67
2024-01-10T01:16:38.025Z,14.27
2024-01-10T01:19:05.258Z,14.13
2024-01-10T01:21:32.458Z,14.48
2024-01-10T01:23:59.540Z,14.63
2024-01-10T01:26:26.546Z,13.88
2024-01-10T01:28:55.898Z,14.65
2024-01-10T01:31:22.895Z,15.32
2024-01-10T01:33:52.135Z,14.88
2024-01-10T01:36:21.866Z,15.25
2024-01-10T01:38:52.141Z,15.82
2024-01-10T01:41:19.704Z,14.45
2024-01-10T01:43:47.019Z,16.48
2024-01-10T01:46:14.242Z,14.45
2024-01-10T01:51:10.264Z,14.52
2024-01-10T01:53:38.029Z,12.77
2024-01-10T01:56:09.341Z,12.30
2024-01-10T01:58:38.054Z,13.75
2024-01-10T02:01:06.657Z,12.93
2024-01-10T02:03:34.410Z,13.27
2024-01-10T02:06:04.972Z,11.50
2024-01-10T02:08:36.488Z,11.80
2024-01-10T02:11:04.653Z,12.38
2024-01-10T02:13:36.150Z,12.40
2024-01-10T02:16:06.877Z,13.65
2024-01-10T02:18:36.317Z,14.40
2024-01-10T02:21:03.967Z,12.52
2024-01-10T02:23:31.020Z,14.07
2024-01-10T02:25:58.208Z,13.48
2024-01-10T02:33:25.004Z,12.77
2024-01-10T02:35:52.072Z,14.35
2024-01-10T02:38:22.517Z,12.88
2024-01-10T02:40:52.189Z,13.07
2024-01-10T02:43:24.160Z,13.88
2024-01-10T02:45:51.393Z,13.48
2024-01-10T02:50:45.542Z,12.50
2024-01-10T02:53:13.229Z,13.43
2024-01-10T02:55:44.178Z,13.15
2024-01-10T02:58:11.430Z,14.15
2024-01-10T03:03:06.240Z,12.50
2024-01-10T03:10:28.559Z,13.68
2024-01-10T03:12:57.811Z,14.18
2024-01-10T03:15:24.894Z,13.30
2024-01-10T03:17:52.065Z,14.02
2024-01-10T03:22:46.550Z,15.05
2024-01-10T03:25:16.092Z,14.70
2024-01-10T03:27:43.099Z,15.02
2024-01-10T03:30:10.724Z,13.55
2024-01-10T03:32:41.675Z,14.38
2024-01-10T03:35:09.930Z,14.32
2024-01-10T03:37:38.029Z,14.88
2024-01-10T03:40:05.344Z,14.30
2024-01-10T03:42:32.324Z,15.15
2024-01-10T03:45:00.231Z,14.57
2024-01-10T03:47:27.600Z,15.32
2024-01-10T03:49:54.578Z,16.25
2024-01-10T03:52:24.250Z,15.75
2024-01-10T03:54:51.290Z,15.27
2024-01-10T03:57:18.419Z,15.43
2024-01-10T04:02:14.743Z,15.85
2024-01-10T04:04:42.083Z,16.73
2024-01-10T04:07:09.838Z,17.92
2024-01-10T04:09:37.085Z,17.38
2024-01-10T04:12:04.449Z,16.83
2024-01-10T04:14:31.523Z,16.60
2024-01-10T04:17:00.731Z,16.02
2024-01-10T04:19:27.789Z,17.00
2024-01-10T04:21:54.917Z,17.25
2024-01-10T04:24:21.907Z,16.73
2024-01-10T04:26:50.089Z,16.15
2024-01-10T04:29:17.416Z,16.20
2024-01-10T04:31:44.782Z,18.30
2024-01-10T04:34:12.444Z,18.50
2024-01-10T04:36:39.698Z,16.98
2024-01-10T04:39:10.278Z,17.50
2024-01-10T04:41:37.261Z,18.02
2024-01-10T04:44:07.096Z,17.58
2024-01-10T04:46:34.917Z,17.95
2024-01-10T04:49:04.484Z,18.42
2024-01-10T04:51:33.046Z,18.38
2024-01-10T04:54:02.838Z,17.55
2024-01-10T04:56:30.130Z,18.42
2024-01-10T04:58:57.357Z,18.58
2024-01-10T05:01:27.537Z,18.92
2024-01-10T05:03:54.635Z,16.77
2024-01-10T05:06:23.757Z,17.38
2024-01-10T05:08:50.855Z,17.38
2024-01-10T05:11:20.406Z,18.42
2024-01-10T05:13:50.383Z,16.92
2024-01-10T05:16:18.370Z,16.95
2024-01-10T05:18:46.978Z,17.75
2024-01-10T05:21:14.285Z,17.08
2024-01-10T05:23:44.260Z,17.77
2024-01-10T05:26:11.566Z,17.48
2024-01-10T05:33:33.445Z,16.63
2024-01-10T05:38:29.875Z,18.10
2024-01-10T05:40:59.501Z,17.33
2024-01-10T05:43:26.679Z,18.05
2024-01-10T05:48:23.362Z,17.27
2024-01-10T05:50:52.605Z,18.85
2024-01-10T05:53:19.789Z,19.90
2024-01-10T05:58:16.154Z,19.00
2024-01-10T06:00:43.547Z,18.63
2024-01-10T06:03:15.267Z,19.25
2024-01-10T06:05:46.921Z,19.35
2024-01-10T06:08:15.292Z,20.67
2024-01-10T06:10:42.628Z,19.45
2024-01-10T06:15:42.877Z,19.88
2024-01-10T06:18:10.245Z,19.00
2024-01-10T06:20:39.927Z,20.40
2024-01-10T06:23:11.820Z,20.08
2024-01-10T06:25:38.929Z,19.13
2024-01-10T06:33:02.716Z,17.98
2024-01-10T06:35:30.387Z,19.50
2024-01-10T06:37:57.420Z,20.02
2024-01-10T06:40:26.823Z,18.85
2024-01-10T06:42:53.826Z,20.67
2024-01-10T06:45:22.872Z,20.95
2024-01-10T06:47:49.903Z,20.40
2024-01-10T06:52:50.917Z,20.83
2024-01-10T06:55:19.516Z,21.95
2024-01-10T06:57:49.851Z,22.23
2024-01-10T07:00:21.344Z,23.33
2024-01-10T07:02:51.183Z,20.90
2024-01-10T07:05:18.335Z,20.70
2024-01-10T07:07:45.300Z,25.95
2024-01-10T07:10:12.823Z,22.25
2024-01-10T07:12:42.555Z,21.17
2024-01-10T07:15:10.139Z,21.33
2024-01-10T07:17:37.134Z,20.48
2024-01-10T07:22:33.929Z,19.48
2024-01-10T07:25:09.147Z,20.15
2024-01-10T07:27:43.807Z,20.55
2024-01-10T07:30:19.817Z,21.63
2024-01-10T07:32:47.565Z,22.13
2024-01-10T07:35:15.353Z,21.77
2024-01-10T07:37:45.530Z,20.85
2024-01-10T07:40:15.425Z,21.50
2024-01-10T07:42:46.706Z,20.13
2024-01-10T07:45:16.073Z,20.45
2024-01-10T07:47:43.091Z,19.98
2024-01-10T07:50:11.578Z,19.70
2024-01-10T07:52:38.740Z,19.88
2024-01-10T07:57:37.872Z,19.67
2024-01-10T08:00:12.036Z,19.95
2024-01-10T08:02:40.366Z,19.15
2024-01-10T08:05:11.789Z,18.92
2024-01-10T08:07:42.204Z,18.60
2024-01-10T08:10:11.380Z,20.35
2024-01-10T08:12:45.377Z,19.98
2024-01-10T08:15:15.765Z,20.13
2024-01-10T08:17:44.638Z,21.45
2024-01-10T08:20:12.345Z,20.92
2024-01-10T08:22:41.988Z,20.45
2024-01-10T08:25:11.260Z,20.05
2024-01-10T08:27:42.105Z,20.33
2024-01-10T08:30:12.888Z,21.65
2024-01-10T08:32:44.866Z,21.27
2024-01-10T08:35:14.491Z,21.17
2024-01-10T08:37:44.393Z,21.48
2024-01-10T08:40:16.439Z,20.65
2024-01-10T08:42:46.641Z,21.45
2024-01-10T08:45:16.239Z,21.35
2024-01-10T08:47:45.425Z,21.90
2024-01-10T08:50:14.846Z,20.38
2024-01-10T08:52:44.655Z,22.00
2024-01-10T08:55:14.583Z,21.92
2024-01-10T08:57:44.106Z,21.42
2024-01-10T09:00:13.501Z,19.67
2024-01-10T09:02:43.346Z,19.38
2024-01-10T09:05:11.814Z,18.02
2024-01-10T09:07:39.680Z,18.90
2024-01-10T09:10:09.718Z,18.05
2024-01-10T09:12:39.516Z,16.38
2024-01-10T09:15:14.245Z,17.45
2024-01-10T09:17:44.475Z,17.60
2024-01-10T09:20:12.669Z,16.77
2024-01-10T09:22:45.299Z,17.60
2024-01-10T09:25:13.412Z,17.60
2024-01-10T09:27:45.375Z,17.23
2024-01-10T09:30:13.447Z,18.52
2024-01-10T09:32:43.318Z,17.98
2024-01-10T09:35:10.405Z,19.13
2024-01-10T09:37:40.341Z,18.23
2024-01-10T09:40:10.561Z,18.98
2024-01-10T09:42:39.670Z,19.55
2024-01-10T09:45:11.079Z,19.67
2024-01-10T09:47:41.002Z,19.27
2024-01-10T09:50:08.582Z,20.00
2024-01-10T09:52:42.820Z,19.27
2024-01-10T09:55:11.006Z,19.25
2024-01-10T09:57:40.814Z,18.10
2024-01-10T10:00:12.273Z,19.08
2024-01-10T10:02:43.830Z,20.52
2024-01-10T10:05:16.655Z,18.02
2024-01-10T10:07:48.301Z,20.17
2024-01-10T10:10:16.851Z,19.67
2024-01-10T10:12:48.373Z,21.13
2024-01-10T10:15:17.360Z,20.52
2024-01-10T10:17:49.283Z,20.95
2024-01-10T10:20:38.674Z,21.73
2024-01-10T10:23:11.981Z,21.02
2024-01-10T10:25:48.546Z,21.15
2024-01-10T10:28:25.296Z,20.52
2024-01-10T10:30:59.163Z,20.38
2024-01-10T10:33:26.364Z,21.60
2024-01-10T10:36:01.871Z,20.05
2024-01-10T10:38:28.905Z,21.95
2024-01-10T10:43:24.366Z,20.23
2024-01-10T10:45:52.641Z,21.10
2024-01-10T10:48:24.145Z,21.60
2024-01-10T10:51:18.749Z,19.63
2024-01-10T10:53:49.624Z,20.67
2024-01-10T10:56:21.297Z,18.88
2024-01-10T10:58:50.102Z,20.85
2024-01-10T11:01:17.973Z,20.77
2024-01-10T11:03:48.335Z,21.17
2024-01-10T11:06:18.936Z,20.02
2024-01-10T11:08:52.054Z,21.15
2024-01-10T11:12:03.727Z,20.60
2024-01-10T11:14:37.194Z,20.98
2024-01-10T11:17:45.757Z,21.15
2024-01-10T11:20:24.854Z,19.80
2024-01-10T11:23:00.793Z,21.02
2024-01-10T11:25:30.909Z,21.67
2024-01-10T11:28:03.559Z,20.25
2024-01-10T11:30:43.772Z,21.30
2024-01-10T11:33:26.393Z,21.00
2024-01-10T11:36:16.820Z,20.65
2024-01-10T11:38:56.069Z,20.20
2024-01-10T11:41:34.207Z,20.15
2024-01-10T11:44:15.012Z,21.80
2024-01-10T11:46:42.947Z,20.27
2024-01-10T11:49:20.072Z,20.65
2024-01-10T11:51:49.938Z,20.80
2024-01-10T11:54:38.902Z,21.80
2024-01-10T11:57:25.253Z,22.50
2024-01-10T12:00:00.663Z,21.13
2024-01-10T12:02:31.155Z,22.40
2024-01-10T12:05:01.173Z,21.83
2024-01-10T12:09:56.257Z,21.08
2024-01-10T12:12:25.943Z,21.65
2024-01-10T12:14:53.099Z,22.67
2024-01-10T12:17:20.705Z,20.30
2024-01-10T12:19:50.413Z,19.55
2024-01-10T12:22:22.671Z,21.77
2024-01-10T12:24:53.452Z,22.38
2024-01-10T12:27:22.322Z,22.50
2024-01-10T12:29:54.883Z,22.75
2024-01-10T12:32:25.455Z,22.63
2024-01-10T12:35:05.531Z,23.08
2024-01-10T12:37:32.968Z,21.05
2024-01-10T12:42:29.605Z,20.10
2024-01-10T12:45:00.313Z,21.23
2024-01-10T12:47:27.663Z,21.90
2024-01-10T12:49:55.233Z,20.98
2024-01-10T12:52:23.872Z,20.30
2024-01-10T12:54:54.879Z,21.38
2024-01-10T12:57:22.065Z,21.00
2024-01-10T12:59:49.504Z,20.25
2024-01-10T13:02:16.492Z,20.27
2024-01-10T13:04:43.516Z,22.08
2024-01-10T13:07:10.670Z,20.33
2024-01-10T13:09:42.773Z,21.02
2024-01-10T13:12:10.077Z,22.20
2024-01-10T13:17:08.698Z,23.48
2024-01-10T13:19:39.197Z,21.13
2024-01-10T13:22:08.793Z,20.05
2024-01-10T13:24:36.451Z,21.17
2024-01-10T13:27:03.457Z,20.20
2024-01-10T13:29:30.525Z,20.63
2024-01-10T13:32:00.036Z,20.58
2024-01-10T13:36:54.010Z,21.80
2024-01-10T13:39:23.076Z,21.85
2024-01-10T13:41:50.135Z,22.80
2024-01-10T13:44:17.783Z,21.35
2024-01-10T13:46:49.102Z,20.38
2024-01-10T13:49:21.366Z,21.48
2024-01-10T13:51:50.592Z,23.38
2024-01-10T13:54:17.612Z,22.70
2024-01-10T13:56:44.538Z,21.50
2024-01-10T13:59:11.529Z,21.05
2024-01-10T14:01:38.598Z,21.60
2024-01-10T14:04:08.340Z,19.92
2024-01-10T14:06:35.399Z,21.67
2024-01-10T14:09:03.415Z,21.27
2024-01-10T14:11:30.534Z,22.60
2024-01-10T14:14:05.006Z,20.45
2024-01-10T14:16:32.309Z,20.52
2024-01-10T14:19:02.015Z,21.33
2024-01-10T14:21:29.173Z,21.10
2024-01-10T14:23:56.138Z,20.13
2024-01-10T14:26:23.784Z,21.38
2024-01-10T14:28:54.040Z,20.27
2024-01-10T14:31:29.853Z,19.88
2024-01-10T14:34:09.983Z,20.27
2024-01-10T14:36:40.281Z,21.15
2024-01-10T14:39:08.666Z,22.50
2024-01-10T14:41:35.644Z,22.23
2024-01-10T14:44:05.051Z,22.48
2024-01-10T14:46:32.265Z,20.33
2024-01-10T14:48:59.303Z,51.00
2024-01-10T14:51:28.607Z,24.13
2024-01-10T14:53:55.517Z,22.08
2024-01-10T14:56:22.648Z,21.15
2024-01-10T14:58:51.835Z,20.98
2024-01-10T15:01:21.278Z,21.50
2024-01-10T15:03:48.219Z,20.65
2024-01-10T15:06:15.494Z,20.42
2024-01-10T15:08:43.000Z,20.08
2024-01-10T15:11:12.285Z,19.67
2024-01-10T15:13:43.903Z,20.35
2024-01-10T15:16:13.876Z,19.95
2024-01-10T15:18:42.957Z,20.63
2024-01-10T15:21:09.934Z,20.10
2024-01-10T15:23:40.040Z,22.83
2024-01-10T15:26:08.053Z,21.67
2024-01-10T15:28:35.029Z,21.05
2024-01-10T15:31:01.999Z,19.63
2024-01-10T15:33:35.178Z,20.88
2024-01-10T15:36:04.705Z,21.42
2024-01-10T15:38:34.247Z,19.85
2024-01-10T15:41:02.862Z,20.75
2024-01-10T15:43:32.150Z,19.60
2024-01-10T15:45:59.292Z,20.13
2024-01-10T15:48:26.227Z,20.75
2024-01-10T15:50:53.452Z,20.15
2024-01-10T15:53:23.673Z,20.27
2024-01-10T15:55:53.559Z,21.10
2024-01-10T15:58:27.945Z,19.98
2024-01-10T16:00:59.309Z,20.40
2024-01-10T16:03:26.376Z,21.58
2024-01-10T16:05:53.689Z,20.25
2024-01-10T16:08:21.136Z,22.13
2024-01-10T16:10:48.413Z,21.98
2024-01-10T16:15:44.447Z,21.92
2024-01-10T16:18:11.445Z,23.42
2024-01-10T16:20:41.643Z,24.30
2024-01-10T16:23:08.707Z,24.52
2024-01-10T16:30:29.996Z,25.67
2024-01-10T16:33:02.851Z,27.90
2024-01-10T16:35:29.993Z,24.98
2024-01-10T16:37:59.515Z,26.42
2024-01-10T16:40:29.164Z,23.33
2024-01-10T16:42:56.510Z,23.08
2024-01-10T16:47:53.226Z,21.67
2024-01-10T16:50:22.612Z,24.38
2024-01-10T16:52:49.834Z,24.83
2024-01-10T16:55:21.583Z,24.45
2024-01-10T16:57:50.721Z,24.08
2024-01-10T17:00:18.286Z,23.77
2024-01-10T17:02:45.379Z,23.05
2024-01-10T17:05:12.452Z,22.65
2024-01-10T17:07:41.881Z,22.17
2024-01-10T17:10:09.186Z,22.83
2024-01-10T17:15:05.770Z,22.77
2024-01-10T17:17:32.804Z,22.67
2024-01-10T17:20:02.359Z,23.63
2024-01-10T17:22:57.536Z,22.30
2024-01-10T17:25:25.441Z,23.45
2024-01-10T17:27:55.054Z,24.17
2024-01-10T17:30:22.164Z,22.27
2024-01-10T17:32:49.850Z,25.27
2024-01-10T17:35:18.193Z,23.77
2024-01-10T17:37:46.668Z,24.30
2024-01-10T17:40:15.006Z,24.02
2024-01-10T17:42:42.143Z,24.77
2024-01-10T17:45:10.232Z,23.55
2024-01-10T17:47:37.920Z,23.63
2024-01-10T17:50:05.988Z,24.65
2024-01-10T17:52:33.127Z,24.42
2024-01-10T17:55:00.511Z,25.50
2024-01-10T17:57:30.394Z,26.52
2024-01-10T17:59:58.305Z,26.40
2024-01-10T18:02:28.133Z,25.10
2024-01-10T18:04:55.159Z,24.98
2024-01-10T18:07:22.232Z,26.42
2024-01-10T18:09:51.687Z,26.42
2024-01-10T18:12:18.719Z,24.88
2024-01-10T18:14:46.448Z,22.70
2024-01-10T18:17:16.167Z,24.73
2024-01-10T18:19:45.665Z,23.17
2024-01-10T18:22:12.586Z,23.35
2024-01-10T18:24:41.830Z,22.25
2024-01-10T18:27:11.029Z,22.88
2024-01-10T18:29:38.013Z,23.15
2024-01-10T18:32:09.870Z,22.63
2024-01-10T18:34:39.691Z,22.52
2024-01-10T18:37:07.295Z,24.55
2024-01-10T18:39:39.913Z,25.80
2024-01-10T18:42:07.842Z,26.70
2024-01-10T18:44:40.104Z,23.77
2024-01-10T18:47:09.440Z,23.85
2024-01-10T18:49:39.089Z,22.92
2024-01-10T18:52:08.828Z,24.65
2024-01-10T18:54:38.039Z,22.63
2024-01-10T18:57:09.505Z,22.05
2024-01-10T18:59:39.012Z,23.80
2024-01-10T19:02:08.529Z,23.58
2024-01-10T19:04:35.642Z,23.42
2024-01-10T19:07:03.874Z,23.58
2024-01-10T19:09:31.174Z,24.45
2024-01-10T19:14:27.456Z,21.77
2024-01-10T19:16:54.620Z,47.97
2024-01-10T19:19:23.953Z,26.02
2024-01-10T19:21:57.007Z,25.60
2024-01-10T19:24:26.489Z,25.52
2024-01-10T19:26:57.288Z,25.15
2024-01-10T19:29:26.305Z,27.75
2024-01-10T19:31:55.519Z,25.30
2024-01-10T19:34:24.055Z,25.08
2024-01-10T19:36:51.267Z,25.42
2024-01-10T19:39:18.228Z,24.50
2024-01-10T19:41:45.256Z,24.35
2024-01-10T19:44:12.417Z,25.58
2024-01-10T19:46:41.677Z,29.08
2024-01-10T19:49:11.235Z,28.92
2024-01-10T19:51:38.226Z,27.27
2024-01-10T19:54:05.408Z,25.73
2024-01-10T19:59:03.369Z,23.15
2024-01-10T20:01:39.124Z,24.83
2024-01-10T20:04:06.407Z,24.88
2024-01-10T20:06:33.979Z,28.48
2024-01-10T20:09:03.230Z,27.42
2024-01-10T20:11:30.246Z,26.52
2024-01-10T20:13:57.311Z,28.33
2024-01-10T20:16:24.314Z,28.65
2024-01-10T20:18:54.583Z,29.02
2024-01-10T20:21:26.110Z,27.25
2024-01-10T20:23:53.177Z,28.05
2024-01-10T20:26:20.875Z,34.95
2024-01-10T20:28:47.860Z,52.50
2024-01-10T20:31:14.950Z,38.30
2024-01-10T20:33:42.122Z,33.50
2024-01-10T20:38:36.808Z,24.65
2024-01-10T20:41:04.376Z,24.20
2024-01-10T20:43:31.431Z,24.48
2024-01-10T20:45:58.411Z,23.65
2024-01-10T20:48:25.505Z,24.73
2024-01-10T20:50:57.254Z,24.73
2024-01-10T20:53:27.373Z,22.48
2024-01-10T20:55:54.503Z,22.77
2024-01-10T20:58:24.648Z,23.42
2024-01-10T21:00:53.923Z,23.10
2024-01-10T21:03:21.161Z,22.83
2024-01-10T21:05:53.451Z,24.52
2024-01-10T21:08:20.712Z,24.38
2024-01-10T21:10:52.612Z,25.30
2024-01-10T21:13:19.608Z,23.20
2024-01-10T21:15:46.632Z,23.08
2024-01-10T21:18:16.754Z,23.15
2024-01-10T21:20:44.011Z,24.25
2024-01-10T21:25:42.643Z,21.95
2024-01-10T21:28:09.920Z,23.52
2024-01-10T21:30:39.081Z,24.33
2024-01-10T21:33:07.555Z,22.42
2024-01-10T21:35:36.772Z,22.98
2024-01-10T21:38:04.010Z,23.60
2024-01-10T21:43:05.519Z,23.35
2024-01-10T21:45:34.862Z,24.42
2024-01-10T21:48:02.858Z,24.00
2024-01-10T21:50:32.075Z,23.55
2024-01-10T21:52:59.628Z,24.30
2024-01-10T21:55:26.568Z,24.33
2024-01-10T21:57:58.336Z,24.83
2024-01-10T22:00:26.509Z,25.85
2024-01-10T22:02:57.169Z,25.85
2024-01-10T22:05:26.233Z,27.63
2024-01-10T22:07:53.678Z,25.92
2024-01-10T22:10:23.008Z,26.00
2024-01-10T22:12:50.108Z,25.65
2024-01-10T22:15:17.618Z,28.77
2024-01-10T22:17:46.883Z,26.63
2024-01-10T22:20:14.017Z,28.17
2024-01-10T22:22:41.964Z,29.00
2024-01-10T22:25:13.419Z,28.00
2024-01-10T22:27:40.356Z,26.98
2024-01-10T22:30:11.517Z,28.05
2024-01-10T22:32:39.321Z,27.60
2024-01-10T22:35:06.871Z,27.00
2024-01-10T22:37:33.905Z,28.98
2024-01-10T22:40:01.012Z,27.65
2024-01-10T22:42:30.512Z,27.80
2024-01-10T22:44:58.559Z,27.33
2024-01-10T22:47:30.226Z,27.15
2024-01-10T22:49:59.472Z,26.52
2024-01-10T22:52:32.002Z,27.90
2024-01-10T22:54:59.182Z,28.75
2024-01-10T23:09:41.181Z,28.90
2024-01-10T23:12:10.705Z,29.33
2024-01-10T23:14:37.701Z,31.15
2024-01-10T23:17:08.865Z,31.38
2024-01-10T23:19:36.606Z,32.08
2024-01-10T23:24:40.862Z,29.88
2024-01-10T23:27:10.781Z,30.63
2024-01-10T23:29:41.662Z,31.83
2024-01-10T23:32:10.929Z,31.30
2024-01-10T23:34:38.285Z,31.48
2024-01-10T23:37:07.310Z,31.60
2024-01-10T23:39:36.620Z,31.92
2024-01-10T23:42:06.129Z,33.00
2024-01-10T23:44:35.618Z,31.60
2024-01-10T23:47:02.636Z,33.65
2024-01-10T23:49:33.362Z,33.00
2024-01-10T23:52:00.497Z,33.47
2024-01-10T23:54:28.429Z,33.50
2024-01-10T23:56:55.433Z,31.05
2024-01-10T23:59:24.936Z,29.13
